DLH3DL OMDB-EDDF
Flight info
| Callsign | DLH3DL |
|---|---|
| Flight time | N/A |
| Altitude | 38000 |
| Route | SENP2F SENPA N571 ALPOB L768 ULADA Q143 MEDGO N697 HIL A788 HLF L604 WEJ L677 CVO L617 NOZ L551 ANTAR AKINA RIGRO PEREN UL863 EVIVI OKANA TONDO ARSIN BUDEX IPDUL RAPET T170 GAPLA T178 KERAX KERA5A |
| Aircraft | A388/J-VGDW/C |
Departure
| Time | 2026-05-07 13:34 |
|---|---|
| Airport | Dubai International Airport (OMDB) |
Arrival
| Time | N/A |
|---|---|
| Airport | Frankfurt Main Airport (EDDF) |
| Time | Latitude | Longitude | Altitude | Speed | Heading |
|---|---|---|---|---|---|
| 2026-05-07 12:57 | 25.25485 | 55.35006 | 27 ft | 0 kts | 121° |
| 2026-05-07 13:09 | 25.25486 | 55.35003 | 27 ft | 1 kts | 121° |
| 2026-05-07 13:09 | 25.25490 | 55.34997 | 26 ft | 1 kts | 121° |
| 2026-05-07 13:09 | 25.25493 | 55.34992 | 26 ft | 2 kts | 121° |
| 2026-05-07 13:10 | 25.25504 | 55.34972 | 26 ft | 3 kts | 121° |
| 2026-05-07 13:10 | 25.25513 | 55.34954 | 24 ft | 3 kts | 121° |
| 2026-05-07 13:10 | 25.25523 | 55.34936 | 25 ft | 3 kts | 121° |
| 2026-05-07 13:10 | 25.25533 | 55.34918 | 25 ft | 3 kts | 121° |
| 2026-05-07 13:11 | 25.25543 | 55.34900 | 25 ft | 3 kts | 121° |
| 2026-05-07 13:11 | 25.25553 | 55.34882 | 25 ft | 3 kts | 121° |
| 2026-05-07 13:11 | 25.25558 | 55.34873 | 26 ft | 1 kts | 121° |
| 2026-05-07 13:11 | 25.25561 | 55.34867 | 25 ft | 1 kts | 121° |
| 2026-05-07 13:12 | 25.25565 | 55.34861 | 25 ft | 1 kts | 121° |
| 2026-05-07 13:12 | 25.25568 | 55.34855 | 25 ft | 1 kts | 118° |
| 2026-05-07 13:12 | 25.25569 | 55.34847 | 24 ft | 1 kts | 103° |
| 2026-05-07 13:12 | 25.25569 | 55.34840 | 24 ft | 1 kts | 88° |
| 2026-05-07 13:13 | 25.25567 | 55.34833 | 25 ft | 1 kts | 73° |
| 2026-05-07 13:13 | 25.25564 | 55.34827 | 25 ft | 1 kts | 58° |
| 2026-05-07 13:13 | 25.25562 | 55.34825 | 25 ft | 0 kts | 52° |
| 2026-05-07 13:24 | 25.25575 | 55.34843 | 24 ft | 7 kts | 52° |
| 2026-05-07 13:24 | 25.25623 | 55.34901 | 27 ft | 13 kts | 39° |
| 2026-05-07 13:24 | 25.25709 | 55.34969 | 27 ft | 17 kts | 34° |
| 2026-05-07 13:24 | 25.25819 | 55.35049 | 27 ft | 20 kts | 26° |
| 2026-05-07 13:25 | 25.25947 | 55.35127 | 27 ft | 22 kts | 29° |
| 2026-05-07 13:25 | 25.26057 | 55.35200 | 27 ft | 0 kts | 33° |
| 2026-05-07 13:27 | 25.26070 | 55.35210 | 27 ft | 6 kts | 35° |
| 2026-05-07 13:27 | 25.26103 | 55.35257 | 27 ft | 9 kts | 79° |
| 2026-05-07 13:28 | 25.26082 | 55.35324 | 27 ft | 12 kts | 116° |
| 2026-05-07 13:28 | 25.26036 | 55.35425 | 27 ft | 17 kts | 116° |
| 2026-05-07 13:28 | 25.25977 | 55.35553 | 27 ft | 20 kts | 118° |
| 2026-05-07 13:28 | 25.25901 | 55.35697 | 27 ft | 23 kts | 121° |
| 2026-05-07 13:29 | 25.25812 | 55.35853 | 27 ft | 25 kts | 122° |
| 2026-05-07 13:29 | 25.25722 | 55.36012 | 27 ft | 24 kts | 122° |
| 2026-05-07 13:29 | 25.25630 | 55.36176 | 27 ft | 26 kts | 121° |
| 2026-05-07 13:29 | 25.25535 | 55.36350 | 27 ft | 26 kts | 122° |
| 2026-05-07 13:30 | 25.25478 | 55.36450 | 27 ft | 5 kts | 122° |
| 2026-05-07 13:30 | 25.25468 | 55.36468 | 27 ft | 8 kts | 122° |
| 2026-05-07 13:30 | 25.25415 | 55.36560 | 27 ft | 20 kts | 122° |
| 2026-05-07 13:30 | 25.25325 | 55.36724 | 27 ft | 30 kts | 121° |
| 2026-05-07 13:31 | 25.25204 | 55.36946 | 27 ft | 37 kts | 121° |
| 2026-05-07 13:31 | 25.25067 | 55.37198 | 27 ft | 37 kts | 121° |
| 2026-05-07 13:31 | 25.24941 | 55.37425 | 27 ft | 32 kts | 122° |
| 2026-05-07 13:31 | 25.24829 | 55.37624 | 27 ft | 29 kts | 121° |
| 2026-05-07 13:32 | 25.24730 | 55.37806 | 27 ft | 26 kts | 121° |
| 2026-05-07 13:32 | 25.24653 | 55.37948 | 27 ft | 0 kts | 120° |
| 2026-05-07 13:32 | 25.24641 | 55.37973 | 27 ft | 8 kts | 109° |
| 2026-05-07 13:32 | 25.24651 | 55.38037 | 27 ft | 11 kts | 49° |
| 2026-05-07 13:33 | 25.24724 | 55.38093 | 27 ft | 14 kts | 358° |
| 2026-05-07 13:33 | 25.24792 | 55.38036 | 27 ft | 15 kts | 305° |
| 2026-05-07 13:33 | 25.25019 | 55.37647 | 27 ft | 118 kts | 302° |
| 2026-05-07 13:33 | 25.25585 | 55.36632 | 219 ft | 175 kts | 301° |
| 2026-05-07 13:34 | 25.26263 | 55.35432 | 713 ft | 188 kts | 301° |
| 2026-05-07 13:34 | 25.27553 | 55.33094 | 2564 ft | 180 kts | 301° |
| 2026-05-07 13:34 | 25.28236 | 55.31854 | 3083 ft | 197 kts | 301° |
| 2026-05-07 13:35 | 25.28987 | 55.30493 | 3387 ft | 222 kts | 300° |
| 2026-05-07 13:35 | 25.29603 | 55.28812 | 4109 ft | 252 kts | 284° |
| 2026-05-07 13:35 | 25.29851 | 55.26700 | 4238 ft | 304 kts | 275° |
| 2026-05-07 13:35 | 25.30026 | 55.24201 | 4228 ft | 347 kts | 274° |
| 2026-05-07 13:36 | 25.30218 | 55.21421 | 4248 ft | 384 kts | 274° |
| 2026-05-07 13:36 | 25.30435 | 55.18461 | 5525 ft | 376 kts | 275° |
| 2026-05-07 13:36 | 25.30640 | 55.15600 | 7041 ft | 369 kts | 274° |
| 2026-05-07 13:36 | 25.30829 | 55.12808 | 8507 ft | 360 kts | 274° |
| 2026-05-07 13:37 | 25.31014 | 55.10084 | 9971 ft | 351 kts | 274° |
| 2026-05-07 13:37 | 25.30934 | 55.07438 | 11435 ft | 340 kts | 258° |
| 2026-05-07 13:37 | 25.30295 | 55.04969 | 12833 ft | 332 kts | 252° |
| 2026-05-07 13:37 | 25.29631 | 55.02467 | 13442 ft | 350 kts | 256° |
| 2026-05-07 13:38 | 25.29124 | 54.99783 | 13739 ft | 374 kts | 261° |
| 2026-05-07 13:38 | 25.28768 | 54.96865 | 14262 ft | 388 kts | 264° |
| 2026-05-07 13:38 | 25.28506 | 54.93882 | 15055 ft | 392 kts | 265° |
| 2026-05-07 13:38 | 25.28373 | 54.90852 | 15713 ft | 397 kts | 268° |
| 2026-05-07 13:39 | 25.28318 | 54.87791 | 16396 ft | 400 kts | 269° |
| 2026-05-07 13:39 | 25.28269 | 54.84690 | 17042 ft | 404 kts | 269° |
| 2026-05-07 13:39 | 25.28203 | 54.81567 | 17670 ft | 408 kts | 268° |
| 2026-05-07 13:39 | 25.28124 | 54.78424 | 18273 ft | 412 kts | 269° |
| 2026-05-07 13:40 | 25.28220 | 54.75246 | 18848 ft | 416 kts | 275° |
| 2026-05-07 13:40 | 25.28678 | 54.72074 | 19416 ft | 419 kts | 282° |
| 2026-05-07 13:40 | 25.29445 | 54.68960 | 19948 ft | 423 kts | 286° |
| 2026-05-07 13:40 | 25.30256 | 54.65813 | 20483 ft | 426 kts | 285° |
| 2026-05-07 13:41 | 25.31048 | 54.62686 | 21000 ft | 429 kts | 285° |
| 2026-05-07 13:41 | 25.31849 | 54.59502 | 21523 ft | 433 kts | 285° |
| 2026-05-07 13:41 | 25.32659 | 54.56281 | 22047 ft | 436 kts | 285° |
| 2026-05-07 13:41 | 25.33477 | 54.53028 | 22423 ft | 444 kts | 285° |
| 2026-05-07 13:42 | 25.34360 | 54.49665 | 22671 ft | 455 kts | 287° |
| 2026-05-07 13:42 | 25.35264 | 54.46357 | 23242 ft | 456 kts | 287° |
| 2026-05-07 13:42 | 25.36183 | 54.43003 | 23991 ft | 455 kts | 287° |
| 2026-05-07 13:42 | 25.37095 | 54.39659 | 24778 ft | 453 kts | 287° |
| 2026-05-07 13:43 | 25.38004 | 54.36307 | 25326 ft | 459 kts | 287° |
| 2026-05-07 13:43 | 25.38930 | 54.32875 | 25502 ft | 473 kts | 286° |
| 2026-05-07 13:43 | 25.39878 | 54.29354 | 25940 ft | 481 kts | 286° |
| 2026-05-07 13:43 | 25.40821 | 54.25807 | 26745 ft | 480 kts | 286° |
| 2026-05-07 13:44 | 25.41713 | 54.22251 | 27626 ft | 478 kts | 285° |
| 2026-05-07 13:44 | 25.42584 | 54.18698 | 28344 ft | 481 kts | 285° |
| 2026-05-07 13:44 | 25.43469 | 54.15083 | 28538 ft | 494 kts | 285° |
| 2026-05-07 13:44 | 25.44381 | 54.11380 | 28839 ft | 504 kts | 285° |
| 2026-05-07 13:45 | 25.45302 | 54.07633 | 29524 ft | 504 kts | 285° |
| 2026-05-07 13:45 | 25.46202 | 54.03897 | 30314 ft | 503 kts | 285° |
| 2026-05-07 13:45 | 25.46796 | 54.01418 | 30842 ft | 501 kts | 284° |
| 2026-05-07 13:45 | 25.47691 | 53.97678 | 31322 ft | 507 kts | 285° |
| 2026-05-07 13:46 | 25.48613 | 53.93830 | 31874 ft | 510 kts | 285° |
| 2026-05-07 13:46 | 25.49521 | 53.90042 | 32598 ft | 509 kts | 285° |
| 2026-05-07 13:46 | 25.50428 | 53.86255 | 33355 ft | 508 kts | 285° |
| 2026-05-07 13:46 | 25.51331 | 53.82485 | 34095 ft | 506 kts | 285° |
| 2026-05-07 13:47 | 25.52217 | 53.78779 | 34809 ft | 504 kts | 284° |
| 2026-05-07 13:47 | 25.53113 | 53.75030 | 35530 ft | 502 kts | 284° |
| 2026-05-07 13:47 | 25.54017 | 53.71247 | 36224 ft | 501 kts | 285° |
| 2026-05-07 13:47 | 25.54910 | 53.67517 | 36839 ft | 500 kts | 285° |
| 2026-05-07 13:48 | 25.55801 | 53.63791 | 37410 ft | 501 kts | 284° |
| 2026-05-07 13:48 | 25.56693 | 53.60060 | 37863 ft | 503 kts | 284° |
| 2026-05-07 13:48 | 25.57581 | 53.56334 | 38077 ft | 506 kts | 284° |
| 2026-05-07 13:49 | 25.59361 | 53.48857 | 38000 ft | 502 kts | 284° |
| 2026-05-07 13:49 | 25.61140 | 53.41367 | 38000 ft | 503 kts | 284° |
| 2026-05-07 13:50 | 25.62914 | 53.33864 | 38000 ft | 503 kts | 284° |
| 2026-05-07 13:50 | 25.64681 | 53.26366 | 38000 ft | 503 kts | 284° |
| 2026-05-07 13:51 | 25.66446 | 53.18860 | 38000 ft | 503 kts | 284° |
| 2026-05-07 13:51 | 25.68207 | 53.11351 | 38000 ft | 503 kts | 284° |
| 2026-05-07 13:52 | 25.70028 | 53.03857 | 38000 ft | 503 kts | 288° |
| 2026-05-07 13:52 | 25.72773 | 52.96710 | 38000 ft | 502 kts | 298° |
| 2026-05-07 13:53 | 25.76050 | 52.89860 | 38000 ft | 503 kts | 297° |
| 2026-05-07 13:53 | 25.79286 | 52.83020 | 38000 ft | 503 kts | 297° |
| 2026-05-07 13:54 | 25.82539 | 52.76146 | 38000 ft | 503 kts | 297° |
| 2026-05-07 13:54 | 25.85796 | 52.69263 | 38000 ft | 503 kts | 297° |
| 2026-05-07 13:55 | 25.89054 | 52.62381 | 38000 ft | 503 kts | 297° |
| 2026-05-07 13:55 | 25.92313 | 52.55500 | 38000 ft | 503 kts | 297° |
| 2026-05-07 13:56 | 25.95576 | 52.48611 | 38000 ft | 503 kts | 297° |
| 2026-05-07 13:56 | 25.98836 | 52.41731 | 38000 ft | 503 kts | 297° |
| 2026-05-07 13:57 | 26.02099 | 52.34848 | 37998 ft | 503 kts | 297° |
| 2026-05-07 13:57 | 26.05366 | 52.27956 | 38000 ft | 503 kts | 297° |
| 2026-05-07 13:58 | 26.08633 | 52.21066 | 38001 ft | 504 kts | 297° |
| 2026-05-07 13:58 | 26.11908 | 52.14164 | 38000 ft | 504 kts | 297° |
| 2026-05-07 13:59 | 26.15159 | 52.07311 | 38000 ft | 504 kts | 297° |
| 2026-05-07 13:59 | 26.18435 | 52.00409 | 38002 ft | 504 kts | 297° |
| 2026-05-07 14:00 | 26.21711 | 51.93510 | 38000 ft | 504 kts | 297° |
| 2026-05-07 14:00 | 26.24988 | 51.86610 | 38000 ft | 504 kts | 297° |
| 2026-05-07 14:01 | 26.28268 | 51.79705 | 38000 ft | 504 kts | 297° |
| 2026-05-07 14:01 | 26.31545 | 51.72808 | 38000 ft | 504 kts | 298° |
| 2026-05-07 14:02 | 26.34826 | 51.65906 | 38000 ft | 504 kts | 298° |
| 2026-05-07 14:02 | 26.38111 | 51.58997 | 38000 ft | 504 kts | 298° |
| 2026-05-07 14:03 | 26.41390 | 51.52098 | 38000 ft | 503 kts | 297° |
| 2026-05-07 14:03 | 26.42741 | 51.48494 | 38003 ft | 504 kts | 286° |
| 2026-05-07 14:03 | 26.43454 | 51.44665 | 38001 ft | 504 kts | 275° |
| 2026-05-07 14:04 | 26.43794 | 51.36906 | 38000 ft | 504 kts | 277° |
| 2026-05-07 14:04 | 26.45320 | 51.29280 | 38000 ft | 504 kts | 287° |
| 2026-05-07 14:05 | 26.47578 | 51.21880 | 38000 ft | 504 kts | 289° |
| 2026-05-07 14:05 | 26.49948 | 51.14520 | 38000 ft | 504 kts | 289° |
| 2026-05-07 14:06 | 26.52304 | 51.07147 | 38000 ft | 504 kts | 289° |
| 2026-05-07 14:06 | 26.54631 | 50.99821 | 38000 ft | 504 kts | 289° |
| 2026-05-07 14:07 | 26.56971 | 50.92430 | 38000 ft | 504 kts | 289° |
| 2026-05-07 14:07 | 26.59279 | 50.85053 | 38000 ft | 504 kts | 289° |
| 2026-05-07 14:08 | 26.61566 | 50.77645 | 38000 ft | 504 kts | 289° |
| 2026-05-07 14:08 | 26.63852 | 50.70244 | 38000 ft | 504 kts | 289° |
| 2026-05-07 14:09 | 26.66093 | 50.62829 | 38000 ft | 504 kts | 288° |
| 2026-05-07 14:09 | 26.68280 | 50.55392 | 38000 ft | 504 kts | 288° |
| 2026-05-07 14:10 | 26.70463 | 50.47991 | 38000 ft | 504 kts | 288° |
| 2026-05-07 14:10 | 26.72444 | 50.40477 | 38000 ft | 504 kts | 285° |
| 2026-05-07 14:11 | 26.74324 | 50.32938 | 38000 ft | 503 kts | 285° |
| 2026-05-07 14:11 | 26.75616 | 50.25238 | 38000 ft | 503 kts | 275° |
| 2026-05-07 14:12 | 26.75834 | 50.17404 | 38000 ft | 503 kts | 270° |
| 2026-05-07 14:12 | 26.75916 | 50.09569 | 38000 ft | 503 kts | 271° |
| 2026-05-07 14:13 | 26.75998 | 50.01738 | 38000 ft | 503 kts | 270° |
| 2026-05-07 14:13 | 26.76069 | 49.93898 | 38000 ft | 503 kts | 270° |
| 2026-05-07 14:14 | 26.76130 | 49.86062 | 38000 ft | 504 kts | 270° |
| 2026-05-07 14:14 | 26.76186 | 49.78222 | 38000 ft | 504 kts | 270° |
| 2026-05-07 14:15 | 26.76239 | 49.70396 | 38000 ft | 503 kts | 270° |
| 2026-05-07 14:15 | 26.76287 | 49.62563 | 38000 ft | 504 kts | 270° |
| 2026-05-07 14:16 | 26.76332 | 49.54723 | 38000 ft | 504 kts | 270° |
| 2026-05-07 14:16 | 26.76376 | 49.46884 | 38000 ft | 504 kts | 270° |
| 2026-05-07 14:17 | 26.76415 | 49.39099 | 38000 ft | 504 kts | 270° |
| 2026-05-07 14:17 | 26.76448 | 49.31256 | 38000 ft | 504 kts | 270° |
| 2026-05-07 14:18 | 26.76477 | 49.23416 | 38000 ft | 504 kts | 270° |
| 2026-05-07 14:18 | 26.76501 | 49.15553 | 38000 ft | 504 kts | 270° |
| 2026-05-07 14:19 | 26.76521 | 49.07715 | 38000 ft | 504 kts | 270° |
| 2026-05-07 14:19 | 26.76537 | 48.99905 | 38000 ft | 504 kts | 270° |
| 2026-05-07 14:20 | 26.76548 | 48.92065 | 38000 ft | 504 kts | 270° |
| 2026-05-07 14:20 | 26.76555 | 48.84196 | 38000 ft | 504 kts | 270° |
| 2026-05-07 14:21 | 26.76558 | 48.76344 | 38000 ft | 504 kts | 270° |
| 2026-05-07 14:21 | 26.76551 | 48.68503 | 38000 ft | 504 kts | 269° |
| 2026-05-07 14:22 | 26.76348 | 48.60650 | 38000 ft | 504 kts | 268° |
| 2026-05-07 14:22 | 26.76108 | 48.52854 | 38000 ft | 505 kts | 268° |
| 2026-05-07 14:23 | 26.75888 | 48.44986 | 38000 ft | 505 kts | 268° |
| 2026-05-07 14:23 | 26.75671 | 48.37128 | 38000 ft | 505 kts | 268° |
| 2026-05-07 14:24 | 26.75452 | 48.29261 | 38000 ft | 504 kts | 268° |
| 2026-05-07 14:24 | 26.75232 | 48.21414 | 38000 ft | 505 kts | 268° |
| 2026-05-07 14:25 | 26.75009 | 48.13606 | 38000 ft | 505 kts | 268° |
| 2026-05-07 14:25 | 26.74779 | 48.05748 | 38000 ft | 505 kts | 268° |
| 2026-05-07 14:26 | 26.74545 | 47.97886 | 38000 ft | 505 kts | 268° |
| 2026-05-07 14:26 | 26.74306 | 47.90022 | 38000 ft | 505 kts | 268° |
| 2026-05-07 14:27 | 26.74558 | 47.82159 | 38000 ft | 506 kts | 273° |
| 2026-05-07 14:27 | 26.74962 | 47.74304 | 38000 ft | 506 kts | 273° |
| 2026-05-07 14:28 | 26.75352 | 47.66449 | 38000 ft | 506 kts | 273° |
| 2026-05-07 14:28 | 26.75739 | 47.58594 | 38000 ft | 506 kts | 273° |
| 2026-05-07 14:29 | 26.76058 | 47.52058 | 38000 ft | 506 kts | 273° |
| 2026-05-07 14:29 | 26.76500 | 47.42913 | 38000 ft | 506 kts | 273° |
| 2026-05-07 14:30 | 26.77129 | 47.35072 | 38000 ft | 506 kts | 280° |
| 2026-05-07 14:30 | 26.78161 | 47.28567 | 38000 ft | 506 kts | 279° |
| 2026-05-07 14:31 | 26.79357 | 47.20799 | 38000 ft | 506 kts | 279° |
| 2026-05-07 14:31 | 26.80547 | 47.13033 | 38000 ft | 506 kts | 279° |
| 2026-05-07 14:32 | 26.81728 | 47.05303 | 38000 ft | 506 kts | 279° |
| 2026-05-07 14:32 | 26.83079 | 46.96432 | 38000 ft | 506 kts | 279° |
| 2026-05-07 14:33 | 26.84259 | 46.88650 | 38000 ft | 507 kts | 279° |
| 2026-05-07 14:33 | 26.85436 | 46.80864 | 38000 ft | 507 kts | 279° |
| 2026-05-07 14:34 | 26.86607 | 46.73079 | 38000 ft | 507 kts | 279° |
| 2026-05-07 14:34 | 26.87775 | 46.65293 | 38000 ft | 507 kts | 279° |
| 2026-05-07 14:35 | 26.88742 | 46.58820 | 38000 ft | 507 kts | 279° |